メインページ
METAR-TAF:

METAR-TAF

空港 :

モスクワ-シェレメーチエヴォ, ロシア

シェレメーチエヴォ国際空港

緯度: 55-59N, 経度: 037-30E, 海抜: 190m

現時点の気象観測

当レポートは47分前の09:00(UTC)に作成
西/北西の風 14kt
気温 1°C
湿度 64%
気圧 1013 hPa
視程10km以上
高度3200ftの雲は散在している

METAR: UUEE 250900Z 30007MPS 9999 SCT032 01/M05 Q1013 R24R/290145 R24L/190057 NOSIG

時間: 12:47 (09:47 UTC)

予報

当レポートは1時間48分前の07:59(UTC)に作成
予報は25日の 09時(UTC)から 26日の 09時(UTC)まで有効
西/北西の風 14kt
視程10km以上
高度1000ftの雲は散在している
25日の 09時(UTC)から 25日の 15時(UTC)まで一時的に
西/北西の風 23kt
高度700ftの千切れ雲あり
高度1500ftの雲は散在している, 積乱雲.
弱いにわか雪

TAF: UUEE 250759Z 2509/2609 29007MPS 9999 SCT010 TX03/2512Z TNM04/2602Z TEMPO 2509/2515 30012MPS -SHSN BKN007 SCT015CB

4,000以上の空港の気象観測と天気予報(METAR報とTAF報)

利用可能な観測所は地図上に黄色い丸と赤い丸で示す。

丸の上にカーソルを重ねると観測所名を参照できる。

次にクリックすると気象観測と天気予報を参照できる。

マップの切り替え:黒色「×」印の緑ボタンをクリックして拡大、「-」印の緑ボタンをクリックして縮小、緑色の三角印をクリックして隣りの地図に切り替え


METAR-TAF: